Time;durP1;ratioP1;P1;durP2;ratioP2;P2;SDS_P1;SDS_P2;PMS_P1;PMS_P2;Temp;Humidity;BMP_temperature;BMP_pressure;BME280_temperature;BME280_humidity;BME280_pressure;Samples;Min_cycle;Max_cycle;Signal;HPM_P1;HPM_P2
2024/04/15 00:02:16;;;;;;;4.05;3.53;;;19.80;99.90;;;;;;5339241;26;20260;-75
2024/04/15 00:04:45;;;;;;;3.45;3.15;;;19.80;99.90;;;;;;5376248;26;20260;-75
2024/04/15 00:07:11;;;;;;;3.65;3.35;;;19.80;99.90;;;;;;5381200;26;20328;-77
2024/04/15 00:09:42;;;;;;;4.13;3.83;;;19.80;99.90;;;;;;5388425;26;20287;-76
2024/04/15 00:12:08;;;;;;;3.53;3.22;;;19.80;99.90;;;;;;5390875;26;20257;-75
2024/04/15 00:14:37;;;;;;;3.83;3.42;;;19.70;99.90;;;;;;5394300;26;20295;-75
2024/04/15 00:17:03;;;;;;;3.80;3.50;;;19.70;99.90;;;;;;5390379;26;20291;-76
2024/04/15 00:19:32;;;;;;;5.18;4.00;;;19.60;99.90;;;;;;5395549;26;20256;-76
2024/04/15 00:21:58;;;;;;;4.20;3.90;;;19.60;99.90;;;;;;5390198;26;20313;-76
2024/04/15 00:24:27;;;;;;;4.30;3.90;;;19.50;99.90;;;;;;5376597;26;20287;-76
2024/04/15 00:26:55;;;;;;;4.05;3.67;;;19.50;99.90;;;;;;5384860;26;20928;-75
2024/04/15 00:29:25;;;;;;;5.57;3.60;;;19.50;99.90;;;;;;5386587;26;20327;-74
2024/04/15 00:31:51;;;;;;;4.43;4.10;;;19.40;99.90;;;;;;5389908;26;20316;-75
2024/04/15 00:34:19;;;;;;;3.50;3.05;;;19.30;99.90;;;;;;5392839;26;20311;-75
2024/04/15 00:36:45;;;;;;;3.53;3.33;;;19.30;99.90;;;;;;5389110;26;20260;-75
2024/04/15 00:39:15;;;;;;;3.90;3.42;;;19.20;99.90;;;;;;5374332;26;20240;-76
2024/04/15 00:41:42;;;;;;;3.85;3.55;;;19.20;99.90;;;;;;5383549;26;20248;-76
2024/04/15 00:44:13;;;;;;;3.50;3.22;;;19.10;99.90;;;;;;5384601;26;20761;-74
2024/04/15 00:46:39;;;;;;;3.20;2.90;;;19.10;99.90;;;;;;5392426;26;20251;-75
2024/04/15 00:49:08;;;;;;;4.70;3.78;;;19.00;99.90;;;;;;5400850;26;20255;-76
2024/04/15 00:51:35;;;;;;;3.65;3.35;;;19.00;99.90;;;;;;5399892;26;20297;-75
2024/04/15 00:54:05;;;;;;;3.85;3.53;;;19.00;99.90;;;;;;5396998;26;20240;-76
2024/04/15 00:56:31;;;;;;;3.38;3.08;;;19.00;99.90;;;;;;5400955;26;20767;-75
2024/04/15 00:59:01;;;;;;;4.18;3.53;;;19.00;99.90;;;;;;5389393;26;20298;-75
2024/04/15 01:01:30;;;;;;;3.45;3.15;;;19.00;99.90;;;;;;5387439;26;20260;-75
2024/04/15 01:03:59;;;;;;;4.55;3.60;;;19.00;99.90;;;;;;5404807;26;20254;-75
2024/04/15 01:06:25;;;;;;;4.22;3.38;;;19.00;99.90;;;;;;5401713;26;20251;-75
2024/04/15 01:08:55;;;;;;;3.50;3.30;;;18.90;99.90;;;;;;5401005;26;21120;-75
2024/04/15 01:11:21;;;;;;;3.90;3.53;;;18.90;99.90;;;;;;5402878;26;20266;-75
2024/04/15 01:13:49;;;;;;;4.20;3.80;;;18.90;99.90;;;;;;5401773;26;20742;-75
2024/04/15 01:16:15;;;;;;;4.43;3.35;;;18.80;99.90;;;;;;5428899;26;20290;-76
2024/04/15 01:18:47;;;;;;;4.60;4.07;;;18.70;99.90;;;;;;5429170;26;20256;-75
2024/04/15 01:21:13;;;;;;;3.78;3.40;;;18.70;99.90;;;;;;5442553;26;20251;-75
2024/04/15 01:23:48;;;;;;;3.63;3.33;;;18.70;99.90;;;;;;5404223;26;20274;-76
2024/04/15 01:26:15;;;;;;;3.92;3.38;;;18.70;99.90;;;;;;5440733;26;20298;-75
2024/04/15 01:28:43;;;;;;;3.85;3.55;;;18.70;99.90;;;;;;5428836;26;20255;-75
2024/04/15 01:31:09;;;;;;;4.35;3.80;;;18.60;99.90;;;;;;5401630;26;20259;-74
2024/04/15 01:33:38;;;;;;;4.20;3.90;;;18.60;99.90;;;;;;5406482;26;20301;-75
2024/04/15 01:36:04;;;;;;;4.85;4.10;;;18.60;99.90;;;;;;5435721;26;20256;-74
2024/04/15 01:38:34;;;;;;;4.38;3.97;;;18.60;99.90;;;;;;5402791;26;20775;-74
2024/04/15 01:41:02;;;;;;;4.50;4.10;;;18.60;99.90;;;;;;5427069;26;20306;-74
2024/04/15 01:43:31;;;;;;;4.22;3.80;;;18.50;99.90;;;;;;5425160;26;20255;-74
2024/04/15 01:45:57;;;;;;;4.55;3.95;;;18.50;99.90;;;;;;5401791;26;20309;-74
2024/04/15 01:48:27;;;;;;;4.35;4.00;;;18.40;99.90;;;;;;5423297;26;20254;-74
2024/04/15 01:50:52;;;;;;;3.95;3.65;;;18.40;99.90;;;;;;5426049;26;20249;-74
2024/04/15 01:53:21;;;;;;;4.65;4.05;;;18.30;99.90;;;;;;5409304;26;20251;-75
2024/04/15 01:55:47;;;;;;;4.05;3.75;;;18.30;99.90;;;;;;5402290;26;20251;-74
2024/04/15 01:58:19;;;;;;;4.95;4.35;;;18.20;99.90;;;;;;5404124;26;20312;-75
2024/04/15 02:00:45;;;;;;;4.65;4.00;;;18.20;99.90;;;;;;5404049;26;20291;-75
2024/04/15 02:03:13;;;;;;;4.80;4.32;;;18.20;99.90;;;;;;5402898;26;20259;-75
2024/04/15 02:05:40;;;;;;;4.43;3.63;;;18.20;99.90;;;;;;5426712;26;20376;-75
2024/04/15 02:08:09;;;;;;;4.25;3.85;;;18.20;99.90;;;;;;5396491;26;20304;-74
2024/04/15 02:10:38;;;;;;;3.67;3.38;;;18.20;99.90;;;;;;5413566;26;20250;-75
2024/04/15 02:13:03;;;;;;;4.70;4.20;;;18.10;99.90;;;;;;5426679;26;20278;-74
2024/04/15 02:15:35;;;;;;;4.50;4.10;;;18.10;99.90;;;;;;5396553;26;20660;-75
2024/04/15 02:18:04;;;;;;;4.65;3.75;;;18.10;99.90;;;;;;5402291;26;20263;-75
2024/04/15 02:20:33;;;;;;;4.60;3.90;;;18.10;99.90;;;;;;5399058;26;20239;-75
2024/04/15 02:22:59;;;;;;;4.20;3.85;;;18.10;99.90;;;;;;5428085;26;20290;-75
2024/04/15 02:25:28;;;;;;;4.50;4.10;;;18.10;99.90;;;;;;5394757;26;20733;-75
2024/04/15 02:27:54;;;;;;;4.63;4.22;;;18.00;99.90;;;;;;5432018;26;20685;-74
2024/04/15 02:30:23;;;;;;;4.70;4.30;;;18.10;99.90;;;;;;5398118;26;20791;-75
2024/04/15 02:32:53;;;;;;;5.15;4.65;;;18.00;99.90;;;;;;5379424;26;20256;-75
2024/04/15 02:35:21;;;;;;;4.60;4.20;;;17.90;99.90;;;;;;5388676;26;20265;-75
2024/04/15 02:37:47;;;;;;;6.78;4.93;;;17.90;99.90;;;;;;5381365;26;20797;-74
2024/04/15 02:40:16;;;;;;;4.47;4.10;;;17.80;99.90;;;;;;5380831;26;20306;-75
2024/04/15 02:42:42;;;;;;;4.13;3.80;;;17.80;99.90;;;;;;5425203;26;20251;-74
2024/04/15 02:45:11;;;;;;;4.22;3.85;;;17.70;99.90;;;;;;5408755;26;20236;-75
2024/04/15 02:47:37;;;;;;;4.38;4.07;;;17.60;99.90;;;;;;5389429;26;20276;-75
2024/04/15 02:50:09;;;;;;;4.35;4.00;;;17.60;99.90;;;;;;5383176;26;20314;-76
2024/04/15 02:52:35;;;;;;;4.90;4.50;;;17.60;99.90;;;;;;5371668;26;20836;-74
2024/04/15 02:55:04;;;;;;;4.75;4.30;;;17.60;99.90;;;;;;5362556;26;20299;-75
2024/04/15 02:57:30;;;;;;;4.20;3.85;;;17.60;99.90;;;;;;5409031;26;20259;-74
2024/04/15 02:59:59;;;;;;;4.82;4.45;;;17.60;99.90;;;;;;5420518;26;20993;-74
2024/04/15 03:02:25;;;;;;;4.82;4.43;;;17.50;99.90;;;;;;5396270;26;20256;-74
2024/04/15 03:04:56;;;;;;;4.68;4.28;;;17.50;99.90;;;;;;5419323;26;20264;-75
2024/04/15 03:07:25;;;;;;;4.72;4.32;;;17.50;99.90;;;;;;5420915;26;20310;-74
2024/04/15 03:09:55;;;;;;;5.13;4.63;;;17.40;99.90;;;;;;5414795;26;20307;-75
2024/04/15 03:12:21;;;;;;;4.82;4.43;;;17.40;99.90;;;;;;5396004;26;20255;-74
2024/04/15 03:14:50;;;;;;;4.57;4.18;;;17.30;99.90;;;;;;5405831;26;20286;-74
2024/04/15 03:17:16;;;;;;;5.10;4.55;;;17.30;99.90;;;;;;5388473;26;20608;-74
2024/04/15 03:19:45;;;;;;;5.13;4.65;;;17.20;99.90;;;;;;5417921;26;20859;-74
2024/04/15 03:22:11;;;;;;;4.82;4.43;;;17.30;99.90;;;;;;5425103;26;20287;-74
2024/04/15 03:24:43;;;;;;;5.85;5.03;;;17.30;99.90;;;;;;5367882;26;20278;-74
2024/04/15 03:27:09;;;;;;;5.35;4.85;;;17.30;99.90;;;;;;5388465;26;20714;-74
2024/04/15 03:29:38;;;;;;;4.60;4.20;;;17.20;99.90;;;;;;5387174;26;20254;-74
2024/04/15 03:32:05;;;;;;;5.35;4.88;;;17.20;99.90;;;;;;5395144;26;20299;-74
2024/04/15 03:34:34;;;;;;;4.38;3.97;;;17.20;99.90;;;;;;5425791;26;20370;-75
2024/04/15 03:37:03;;;;;;;5.18;4.55;;;17.20;99.90;;;;;;5396876;26;20327;-75
2024/04/15 03:39:32;;;;;;;4.70;4.30;;;17.30;99.90;;;;;;5394560;26;20247;-75
2024/04/15 03:42:03;;;;;;;5.40;4.88;;;17.30;99.90;;;;;;5394768;26;20340;-75
2024/04/15 03:44:32;;;;;;;6.22;5.63;;;17.20;99.90;;;;;;5386196;26;20742;-74
2024/04/15 03:46:58;;;;;;;4.90;4.40;;;17.20;99.90;;;;;;5387858;26;20673;-74
2024/04/15 03:49:27;;;;;;;4.55;4.20;;;17.10;99.90;;;;;;5419267;26;20251;-75
2024/04/15 03:51:53;;;;;;;5.78;4.45;;;17.00;99.90;;;;;;5425889;26;20251;-75
2024/04/15 03:54:22;;;;;;;5.10;4.70;;;17.00;99.90;;;;;;5427222;26;20260;-75
2024/04/15 03:56:48;;;;;;;4.50;4.18;;;17.00;99.90;;;;;;5426877;26;20302;-74
2024/04/15 03:59:19;;;;;;;4.65;4.25;;;17.00;99.90;;;;;;5425215;26;20756;-74
2024/04/15 04:01:45;;;;;;;4.95;4.55;;;17.00;99.90;;;;;;5370381;26;20298;-74
2024/04/15 04:04:15;;;;;;;4.70;4.30;;;17.00;99.90;;;;;;5384065;26;20259;-74
2024/04/15 04:06:42;;;;;;;5.00;4.60;;;17.00;99.90;;;;;;5394184;26;20360;-74
2024/04/15 04:09:11;;;;;;;4.72;4.43;;;17.00;99.90;;;;;;5390963;26;20240;-74
2024/04/15 04:11:37;;;;;;;5.65;4.72;;;16.90;99.90;;;;;;5390734;26;20260;-75
2024/04/15 04:14:06;;;;;;;5.35;4.95;;;16.90;99.90;;;;;;5395667;26;21015;-74
2024/04/15 04:16:35;;;;;;;4.75;4.40;;;16.90;99.90;;;;;;5384588;26;20851;-74
2024/04/15 04:19:03;;;;;;;5.22;4.78;;;16.80;99.90;;;;;;5389953;26;20831;-74
2024/04/15 04:21:29;;;;;;;4.90;4.50;;;16.80;99.90;;;;;;5386006;26;20328;-74
2024/04/15 04:24:00;;;;;;;5.03;4.63;;;16.80;99.90;;;;;;5388065;26;20275;-75
2024/04/15 04:26:26;;;;;;;7.60;4.93;;;16.80;99.90;;;;;;5387727;26;20252;-75
2024/04/15 04:28:57;;;;;;;5.55;5.05;;;16.80;99.90;;;;;;5385702;26;20253;-75
2024/04/15 04:31:23;;;;;;;5.35;4.95;;;16.80;99.90;;;;;;5389183;26;20589;-74
2024/04/15 04:33:54;;;;;;;6.15;5.10;;;16.80;99.90;;;;;;5385832;26;20295;-74
2024/04/15 04:36:20;;;;;;;4.72;4.32;;;16.70;99.90;;;;;;5390405;26;20769;-73
2024/04/15 04:38:49;;;;;;;4.75;4.35;;;16.80;99.90;;;;;;5388134;26;20256;-72
2024/04/15 04:41:15;;;;;;;6.38;4.13;;;17.00;99.90;;;;;;5389209;26;20748;-72
2024/04/15 04:43:43;;;;;;;5.07;4.68;;;17.10;99.90;;;;;;5386790;26;20284;-73
2024/04/15 04:46:11;;;;;;;5.22;4.70;;;17.30;99.90;;;;;;5387804;26;20773;-73
2024/04/15 04:48:40;;;;;;;5.72;5.10;;;17.40;99.90;;;;;;5388789;26;20400;-72
2024/04/15 04:51:10;;;;;;;5.50;4.97;;;17.50;99.90;;;;;;5383180;26;22651;-72
2024/04/15 04:53:40;;;;;;;5.30;4.90;;;17.60;99.90;;;;;;5389933;26;20241;-73
2024/04/15 04:56:08;;;;;;;5.93;5.38;;;17.60;99.90;;;;;;5384975;26;20260;-72
2024/04/15 04:58:37;;;;;;;8.10;4.90;;;17.70;99.90;;;;;;5390443;26;20257;-72
2024/04/15 05:01:10;;;;;;;5.28;4.75;;;17.80;99.90;;;;;;5388348;26;20298;-73
2024/04/15 05:03:42;;;;;;;5.57;5.07;;;17.90;99.90;;;;;;5394637;26;20811;-73
2024/04/15 05:06:11;;;;;;;6.07;5.57;;;18.10;99.90;;;;;;5397282;26;20357;-73
2024/04/15 05:08:40;;;;;;;5.90;5.40;;;18.20;99.90;;;;;;5424120;26;20260;-73
2024/04/15 05:11:07;;;;;;;5.22;4.72;;;18.40;99.90;;;;;;5375326;26;20255;-72
2024/04/15 05:13:36;;;;;;;5.57;4.97;;;18.40;99.90;;;;;;5393365;26;20248;-72
2024/04/15 05:16:03;;;;;;;5.88;5.28;;;18.60;99.90;;;;;;5364565;26;20353;-73
2024/04/15 05:18:32;;;;;;;6.18;5.38;;;18.60;99.90;;;;;;5383897;26;20321;-73
2024/04/15 05:20:59;;;;;;;5.90;5.40;;;18.70;99.90;;;;;;5384565;26;20290;-72
2024/04/15 05:23:31;;;;;;;5.45;5.00;;;18.60;99.90;;;;;;5384330;26;20384;-71
2024/04/15 05:25:58;;;;;;;6.07;5.47;;;18.60;99.90;;;;;;5405577;26;20255;-73
2024/04/15 05:28:27;;;;;;;5.72;5.22;;;18.60;99.90;;;;;;5424645;26;20568;-73
2024/04/15 05:30:55;;;;;;;5.35;4.90;;;18.40;99.90;;;;;;5428421;26;20296;-73
2024/04/15 05:33:23;;;;;;;5.03;4.63;;;18.30;99.90;;;;;;5422011;26;20585;-73
2024/04/15 05:35:49;;;;;;;5.43;4.93;;;18.10;99.90;;;;;;5421092;26;20290;-73
2024/04/15 05:38:19;;;;;;;5.57;5.15;;;18.00;99.90;;;;;;5383948;26;20252;-73
2024/04/15 05:40:47;;;;;;;5.70;5.18;;;17.90;99.90;;;;;;5420369;26;20798;-73
2024/04/15 05:43:17;;;;;;;5.07;4.57;;;17.80;99.90;;;;;;5415815;26;20723;-73
2024/04/15 05:45:43;;;;;;;6.75;4.60;;;17.80;99.90;;;;;;5365334;26;20258;-73
2024/04/15 05:48:13;;;;;;;5.05;4.75;;;17.80;99.90;;;;;;5397973;26;20259;-73
2024/04/15 05:50:39;;;;;;;5.22;4.82;;;17.80;99.90;;;;;;5418314;26;20245;-73
2024/04/15 05:53:08;;;;;;;6.45;5.55;;;17.80;99.90;;;;;;5416896;26;20259;-72
2024/04/15 05:55:35;;;;;;;5.88;5.38;;;17.80;99.90;;;;;;5413332;26;20350;-73
2024/04/15 05:58:07;;;;;;;5.03;4.57;;;17.70;99.90;;;;;;5419324;26;20278;-73
2024/04/15 06:00:33;;;;;;;5.10;4.70;;;17.60;99.90;;;;;;5417605;26;20744;-73
2024/04/15 06:03:02;;;;;;;5.10;4.70;;;17.70;99.90;;;;;;5423941;26;20290;-73
2024/04/15 06:05:28;;;;;;;5.30;4.90;;;17.70;99.90;;;;;;5416058;26;20954;-73
2024/04/15 06:07:56;;;;;;;5.88;5.38;;;17.80;99.90;;;;;;5421488;26;20310;-73
2024/04/15 06:10:22;;;;;;;6.00;5.40;;;17.90;99.90;;;;;;5393746;26;20283;-73
2024/04/15 06:12:51;;;;;;;5.90;5.15;;;17.90;99.90;;;;;;5424770;26;20247;-74
2024/04/15 06:15:20;;;;;;;6.20;5.65;;;17.90;99.90;;;;;;5389623;26;20417;-73
2024/04/15 06:17:49;;;;;;;7.07;5.47;;;17.80;99.90;;;;;;5422626;26;20400;-72
2024/04/15 06:20:15;;;;;;;6.25;5.65;;;17.60;99.90;;;;;;5425504;26;20256;-75
2024/04/15 06:22:44;;;;;;;6.70;6.10;;;17.50;99.90;;;;;;5416351;26;22498;-75
2024/04/15 06:25:10;;;;;;;6.35;5.72;;;17.50;99.90;;;;;;5422472;26;20878;-75
2024/04/15 06:27:39;;;;;;;6.38;5.88;;;17.60;99.90;;;;;;5428071;26;20251;-72
2024/04/15 06:30:06;;;;;;;5.88;5.40;;;17.60;99.90;;;;;;5418310;26;20243;-73
2024/04/15 06:32:38;;;;;;;6.30;5.78;;;17.60;99.90;;;;;;5429928;26;20735;-75
2024/04/15 06:35:05;;;;;;;6.50;5.82;;;17.60;99.90;;;;;;5402934;26;20319;-75
2024/04/15 06:37:35;;;;;;;6.28;5.68;;;17.60;99.90;;;;;;5427321;26;20707;-72
2024/04/15 06:40:01;;;;;;;6.07;5.50;;;17.60;99.90;;;;;;5424776;26;20748;-72
2024/04/15 06:42:30;;;;;;;5.50;5.10;;;17.60;99.90;;;;;;5429855;26;20771;-72
2024/04/15 06:44:56;;;;;;;5.45;4.95;;;17.70;99.90;;;;;;5409596;26;20232;-72
2024/04/15 06:47:24;;;;;;;5.68;5.18;;;17.80;99.90;;;;;;5419111;26;20289;-73
2024/04/15 06:49:53;;;;;;;5.68;5.18;;;17.80;99.90;;;;;;5403825;26;20612;-72
2024/04/15 06:52:22;;;;;;;5.55;5.05;;;17.90;99.90;;;;;;5396506;26;20263;-72
2024/04/15 06:54:48;;;;;;;5.55;5.15;;;18.00;99.90;;;;;;5397387;26;20289;-72
2024/04/15 06:57:17;;;;;;;5.90;5.40;;;18.00;99.90;;;;;;5422651;26;20252;-72
2024/04/15 06:59:42;;;;;;;6.40;5.88;;;18.10;99.90;;;;;;5402075;26;20243;-72
2024/04/15 07:02:13;;;;;;;6.50;5.93;;;18.30;99.90;;;;;;5431827;26;20755;-72
2024/04/15 07:04:39;;;;;;;6.55;5.97;;;18.30;99.90;;;;;;5427892;26;20364;-72
2024/04/15 07:07:11;;;;;;;6.20;5.43;;;18.30;99.90;;;;;;5391136;26;20280;-72
2024/04/15 07:09:37;;;;;;;5.60;5.10;;;18.40;99.90;;;;;;5358945;26;20292;-72
2024/04/15 07:12:06;;;;;;;6.18;5.57;;;18.50;99.90;;;;;;5393736;26;20264;-72
2024/04/15 07:14:32;;;;;;;7.50;6.03;;;18.60;99.90;;;;;;5388576;26;20340;-72
2024/04/15 07:17:01;;;;;;;6.15;5.55;;;18.70;99.90;;;;;;5391386;26;20273;-73
2024/04/15 07:19:27;;;;;;;6.93;6.22;;;18.70;99.90;;;;;;5389196;26;20252;-75
2024/04/15 07:21:56;;;;;;;6.22;5.60;;;18.80;99.90;;;;;;5386397;26;20638;-75
2024/04/15 07:24:25;;;;;;;6.38;5.78;;;18.90;99.90;;;;;;5390855;26;20636;-75
2024/04/15 07:26:53;;;;;;;6.57;6.00;;;18.90;99.90;;;;;;5378072;26;20329;-75
2024/04/15 07:29:19;;;;;;;5.95;5.45;;;18.90;99.90;;;;;;5361247;26;20640;-75
2024/04/15 07:31:48;;;;;;;9.20;6.25;;;18.90;99.90;;;;;;5371975;26;20248;-72
2024/04/15 07:34:14;;;;;;;6.88;6.28;;;18.90;99.90;;;;;;5363776;26;20294;-72
2024/04/15 07:36:43;;;;;;;6.85;5.85;;;18.90;99.90;;;;;;5386949;26;20299;-72
2024/04/15 07:39:11;;;;;;;7.57;5.93;;;18.70;99.90;;;;;;5386956;26;20279;-72
2024/04/15 07:41:42;;;;;;;7.50;6.00;;;18.80;99.90;;;;;;5383870;26;20765;-72
2024/04/15 07:44:08;;;;;;;6.38;5.82;;;18.90;99.90;;;;;;5389588;26;20260;-72
2024/04/15 07:46:37;;;;;;;6.03;5.63;;;19.00;99.90;;;;;;5386187;26;20607;-72
2024/04/15 07:49:03;;;;;;;6.53;5.82;;;19.00;99.90;;;;;;5367425;26;20253;-72
2024/04/15 07:51:32;;;;;;;7.63;5.60;;;19.10;99.90;;;;;;5384240;26;20299;-72
2024/04/15 07:53:58;;;;;;;8.65;6.00;;;19.10;99.90;;;;;;5378103;26;20253;-72
2024/04/15 07:56:27;;;;;;;7.57;6.80;;;19.10;99.90;;;;;;5388844;26;20253;-72
2024/04/15 07:58:56;;;;;;;7.85;7.05;;;19.10;99.90;;;;;;5388332;26;20342;-75
2024/04/15 08:01:25;;;;;;;6.40;5.88;;;19.10;99.90;;;;;;5382157;26;20733;-75
2024/04/15 08:03:51;;;;;;;7.38;5.78;;;19.10;99.90;;;;;;5379782;26;20257;-72
2024/04/15 08:06:20;;;;;;;6.97;6.32;;;19.10;99.90;;;;;;5387817;26;20252;-75
2024/04/15 08:08:46;;;;;;;7.03;6.32;;;19.00;99.90;;;;;;5391096;26;20242;-74
2024/04/15 08:11:14;;;;;;;7.20;6.50;;;19.10;99.90;;;;;;5360400;26;20292;-75
2024/04/15 08:13:40;;;;;;;7.45;6.78;;;19.10;99.90;;;;;;5385626;26;20260;-74
2024/04/15 08:16:12;;;;;;;7.40;6.80;;;19.10;99.90;;;;;;5391203;26;20797;-74
2024/04/15 08:18:38;;;;;;;10.88;7.20;;;19.20;99.90;;;;;;5384854;26;20330;-74
2024/04/15 08:21:07;;;;;;;9.65;8.75;;;19.20;99.90;;;;;;5365717;26;20324;-74
2024/04/15 08:23:33;;;;;;;6.97;6.38;;;19.20;99.90;;;;;;5389703;26;20331;-74
2024/04/15 08:26:02;;;;;;;9.85;7.35;;;19.20;99.90;;;;;;5392841;26;20272;-74
2024/04/15 08:28:28;;;;;;;8.43;7.57;;;19.20;99.90;;;;;;5374095;26;20253;-74
2024/04/15 08:30:56;;;;;;;7.68;6.85;;;19.20;99.90;;;;;;5392306;26;20280;-74
2024/04/15 08:33:28;;;;;;;6.82;6.05;;;19.30;99.90;;;;;;5349908;26;20772;-74
2024/04/15 08:35:54;;;;;;;7.65;6.22;;;19.50;99.90;;;;;;5396233;26;20610;-74
2024/04/15 08:38:22;;;;;;;8.75;6.60;;;19.60;99.90;;;;;;5391573;26;20256;-75
2024/04/15 08:40:53;;;;;;;8.23;7.43;;;19.70;99.90;;;;;;5391402;26;20696;-74
2024/04/15 08:43:24;;;;;;;6.60;6.00;;;19.90;99.90;;;;;;5388987;26;20257;-74
2024/04/15 08:45:53;;;;;;;9.95;7.35;;;20.00;99.90;;;;;;5386570;26;20829;-74
2024/04/15 08:48:25;;;;;;;7.45;6.82;;;20.00;99.90;;;;;;5349076;26;20242;-74
2024/04/15 08:50:54;;;;;;;6.90;6.35;;;19.90;99.90;;;;;;5375290;26;20276;-74
2024/04/15 08:53:23;;;;;;;7.40;6.70;;;19.60;99.90;;;;;;5291484;26;20265;-75
2024/04/15 08:55:49;;;;;;;9.43;7.78;;;19.40;99.90;;;;;;5387208;26;20252;-74
2024/04/15 08:58:18;;;;;;;7.53;6.80;;;19.40;99.90;;;;;;5361752;26;20252;-74
2024/04/15 09:00:47;;;;;;;9.85;7.60;;;19.50;99.90;;;;;;5335517;26;20883;-74
2024/04/15 09:03:16;;;;;;;8.63;6.93;;;19.40;99.90;;;;;;5385570;26;20666;-74
2024/04/15 09:05:42;;;;;;;7.38;6.60;;;19.30;99.90;;;;;;5356494;26;20252;-74
2024/04/15 09:08:14;;;;;;;7.95;6.88;;;19.20;99.90;;;;;;5323041;26;20305;-74
2024/04/15 09:10:40;;;;;;;7.00;6.32;;;19.10;99.90;;;;;;5322596;26;20806;-74
2024/04/15 09:13:11;;;;;;;6.53;5.82;;;19.20;99.90;;;;;;5356997;26;20257;-74
2024/04/15 09:15:38;;;;;;;7.53;6.90;;;19.30;99.90;;;;;;5350650;26;20849;-74
2024/04/15 09:18:09;;;;;;;8.07;6.70;;;19.30;99.90;;;;;;5377336;26;20708;-74
2024/04/15 09:20:36;;;;;;;7.53;6.80;;;19.30;99.90;;;;;;5355463;26;20278;-74
2024/04/15 09:23:05;;;;;;;7.30;6.40;;;19.30;99.90;;;;;;5319521;26;20741;-74
2024/04/15 09:25:34;;;;;;;7.60;6.88;;;19.30;99.90;;;;;;5364760;26;20807;-74
2024/04/15 09:28:04;;;;;;;6.55;5.93;;;19.40;99.90;;;;;;5365206;26;20308;-74
2024/04/15 09:30:31;;;;;;;7.07;6.38;;;19.50;99.90;;;;;;5388570;26;20253;-74
2024/04/15 09:33:00;;;;;;;8.30;7.43;;;19.70;99.90;;;;;;5362464;26;20299;-75
2024/04/15 09:35:27;;;;;;;7.97;7.28;;;19.80;99.90;;;;;;5386207;26;20292;-74
2024/04/15 09:37:57;;;;;;;8.27;6.70;;;19.70;99.90;;;;;;5393024;26;20294;-74
2024/04/15 09:40:25;;;;;;;8.10;7.30;;;19.80;99.90;;;;;;5335701;26;20256;-74
2024/04/15 09:42:59;;;;;;;6.82;6.22;;;19.80;99.90;;;;;;5398457;26;20264;-75
2024/04/15 09:45:28;;;;;;;8.15;6.70;;;20.00;99.90;;;;;;5357002;26;20370;-74
2024/04/15 09:47:57;;;;;;;6.80;6.10;;;19.90;99.90;;;;;;5394008;26;21169;-75
2024/04/15 09:50:25;;;;;;;6.93;6.32;;;20.00;99.90;;;;;;5388438;26;20249;-74
2024/04/15 09:52:58;;;;;;;7.85;6.85;;;20.10;99.90;;;;;;5408261;26;20285;-74
2024/04/15 09:55:30;;;;;;;7.07;6.38;;;20.10;99.90;;;;;;5399561;26;20833;-74
2024/04/15 09:58:05;;;;;;;11.93;8.10;;;20.30;99.90;;;;;;5412628;26;20634;-75
2024/04/15 10:00:32;;;;;;;8.77;7.35;;;20.60;99.90;;;;;;5425834;26;20254;-74
2024/04/15 10:03:10;;;;;;;8.13;7.32;;;20.70;99.90;;;;;;5419672;26;20334;-75
2024/04/15 10:05:39;;;;;;;8.68;7.78;;;20.80;99.90;;;;;;5383399;26;20291;-75
2024/04/15 10:08:09;;;;;;;7.18;6.25;;;20.90;99.90;;;;;;5397566;26;20255;-75
2024/04/15 10:10:37;;;;;;;8.48;7.60;;;20.90;99.90;;;;;;5400344;26;20248;-74
2024/04/15 10:13:09;;;;;;;8.25;6.88;;;21.10;99.90;;;;;;5394725;26;20251;-74
2024/04/15 10:15:36;;;;;;;6.47;5.88;;;21.40;99.90;;;;;;5418898;26;20278;-74
2024/04/15 10:18:06;;;;;;;9.85;8.27;;;21.70;99.90;;;;;;5426640;26;20259;-75
2024/04/15 10:20:36;;;;;;;7.30;6.22;;;21.90;99.90;;;;;;5429093;26;20236;-74
2024/04/15 10:23:07;;;;;;;13.10;8.77;;;22.10;99.90;;;;;;5390981;26;20310;-74
2024/04/15 10:25:35;;;;;;;9.50;7.18;;;22.30;99.90;;;;;;5424451;26;20303;-75
2024/04/15 10:28:04;;;;;;;8.20;7.32;;;22.50;99.90;;;;;;5386025;26;20263;-75
2024/04/15 10:30:36;;;;;;;8.38;7.53;;;22.70;99.90;;;;;;5414593;26;20322;-75
2024/04/15 10:33:06;;;;;;;7.63;6.38;;;22.80;99.90;;;;;;5393277;26;20254;-74
2024/04/15 10:35:35;;;;;;;7.30;6.65;;;22.70;99.90;;;;;;5401393;26;20342;-73
2024/04/15 10:38:06;;;;;;;8.10;7.30;;;22.90;99.90;;;;;;5430131;26;20593;-75
2024/04/15 10:40:35;;;;;;;8.13;7.32;;;23.10;99.90;;;;;;5418738;26;20263;-75
2024/04/15 10:43:04;;;;;;;8.00;7.25;;;23.10;99.90;;;;;;5430241;26;20286;-74
2024/04/15 10:45:33;;;;;;;8.70;7.45;;;23.10;99.90;;;;;;5430389;26;20250;-75
2024/04/15 10:48:03;;;;;;;10.45;6.55;;;22.90;99.90;;;;;;5403819;26;20268;-75
2024/04/15 10:50:29;;;;;;;11.10;7.45;;;22.80;99.90;;;;;;5426305;26;20245;-74
2024/04/15 10:52:57;;;;;;;6.28;5.25;;;23.10;99.90;;;;;;5423958;26;20695;-73
2024/04/15 10:55:25;;;;;;;7.43;6.72;;;23.20;99.90;;;;;;5427170;26;20260;-75
2024/04/15 10:57:53;;;;;;;9.35;7.15;;;23.20;99.90;;;;;;5397703;26;20399;-75
2024/04/15 11:00:21;;;;;;;6.90;6.18;;;23.20;99.90;;;;;;5353429;26;20267;-75
2024/04/15 11:02:55;;;;;;;7.03;6.40;;;23.10;99.90;;;;;;5368997;26;20294;-75
2024/04/15 11:05:23;;;;;;;6.20;5.60;;;23.20;99.90;;;;;;5400041;26;20249;-73
2024/04/15 11:07:53;;;;;;;7.68;5.75;;;23.00;99.90;;;;;;5384397;26;20252;-73
2024/04/15 11:10:19;;;;;;;6.70;6.00;;;23.00;99.90;;;;;;5422382;26;20251;-74
2024/04/15 11:12:54;;;;;;;6.10;5.60;;;23.10;99.90;;;;;;5406277;26;20252;-74
2024/04/15 11:15:21;;;;;;;8.57;7.72;;;23.20;99.90;;;;;;5427965;26;20259;-75
2024/04/15 11:17:54;;;;;;;6.65;5.97;;;23.20;99.90;;;;;;5423529;26;20306;-75
2024/04/15 11:20:21;;;;;;;5.43;4.93;;;23.10;99.90;;;;;;5395110;26;20310;-75
2024/04/15 11:22:49;;;;;;;5.05;4.60;;;23.20;99.90;;;;;;5426209;26;20748;-74
2024/04/15 11:25:16;;;;;;;5.60;5.00;;;23.30;99.90;;;;;;5428276;26;20722;-75
2024/04/15 11:27:48;;;;;;;5.85;4.70;;;23.50;99.90;;;;;;5423628;26;20345;-74
2024/04/15 11:30:21;;;;;;;6.55;5.63;;;23.50;99.90;;;;;;5394819;26;20655;-74
2024/04/15 11:32:53;;;;;;;6.88;5.53;;;23.50;99.90;;;;;;5426558;26;20290;-75
2024/04/15 11:35:20;;;;;;;9.52;6.22;;;23.20;99.90;;;;;;5402151;26;20247;-74
2024/04/15 11:37:54;;;;;;;5.82;5.22;;;23.00;99.90;;;;;;5419653;26;21153;-74
2024/04/15 11:40:20;;;;;;;5.75;4.95;;;22.90;99.90;;;;;;5381556;26;20698;-74
2024/04/15 11:42:49;;;;;;;4.88;4.47;;;22.90;99.90;;;;;;5408316;26;20757;-74
2024/04/15 11:45:15;;;;;;;6.63;5.32;;;23.00;99.90;;;;;;5429099;26;20235;-73
2024/04/15 11:47:44;;;;;;;5.60;5.10;;;23.10;99.90;;;;;;5424860;26;20409;-74
2024/04/15 11:50:12;;;;;;;5.85;5.35;;;23.10;99.90;;;;;;5417516;26;20263;-75
2024/04/15 11:52:41;;;;;;;7.32;4.45;;;23.00;99.90;;;;;;5401599;26;20580;-75
2024/04/15 11:55:16;;;;;;;4.97;4.38;;;22.90;99.90;;;;;;5398544;26;20315;-75
2024/04/15 11:57:44;;;;;;;6.00;4.78;;;22.90;99.90;;;;;;5366662;26;21035;-75
2024/04/15 12:00:11;;;;;;;4.40;4.00;;;22.90;99.90;;;;;;5394116;26;20299;-75
2024/04/15 12:02:40;;;;;;;5.30;4.72;;;22.90;99.90;;;;;;5398900;26;20779;-75
2024/04/15 12:05:07;;;;;;;5.70;5.18;;;22.90;99.90;;;;;;5422193;26;20297;-75
2024/04/15 12:07:41;;;;;;;4.43;4.03;;;22.70;99.90;;;;;;5384793;26;20832;-75
2024/04/15 12:10:08;;;;;;;5.82;5.28;;;22.70;99.90;;;;;;5368568;26;20701;-75
2024/04/15 12:12:38;;;;;;;9.68;7.28;;;22.70;99.90;;;;;;5368516;26;20260;-75
2024/04/15 12:15:05;;;;;;;5.88;5.28;;;22.70;99.90;;;;;;5358547;26;20238;-75
2024/04/15 12:17:34;;;;;;;5.18;4.70;;;22.60;99.90;;;;;;5380524;26;20257;-75
2024/04/15 12:20:02;;;;;;;5.32;4.68;;;22.60;99.90;;;;;;5355899;26;20331;-75
2024/04/15 12:22:31;;;;;;;6.32;4.20;;;22.80;99.90;;;;;;5355625;26;20246;-75
2024/04/15 12:25:00;;;;;;;6.10;4.13;;;22.90;99.90;;;;;;5373505;26;20941;-75
2024/04/15 12:27:29;;;;;;;5.32;4.82;;;22.90;99.90;;;;;;5358524;26;20248;-75
2024/04/15 12:29:55;;;;;;;7.13;5.47;;;22.90;99.90;;;;;;5382806;26;20562;-75
2024/04/15 12:32:24;;;;;;;6.28;4.75;;;22.80;99.90;;;;;;5367979;26;20268;-75
2024/04/15 12:34:49;;;;;;;8.52;4.68;;;22.70;99.90;;;;;;5388915;26;20252;-75
2024/04/15 12:37:18;;;;;;;7.75;4.53;;;22.60;99.90;;;;;;5383731;26;20299;-75
2024/04/15 12:39:45;;;;;;;7.57;5.38;;;22.50;99.90;;;;;;5387975;26;20282;-75
2024/04/15 12:42:16;;;;;;;8.10;5.07;;;22.50;99.90;;;;;;5372088;26;20260;-75
2024/04/15 12:44:42;;;;;;;5.32;4.47;;;22.40;99.90;;;;;;5391331;26;20287;-75
2024/04/15 12:47:12;;;;;;;7.20;5.40;;;22.30;99.90;;;;;;5391798;26;20802;-75
2024/04/15 12:49:38;;;;;;;7.90;5.70;;;22.20;99.90;;;;;;5398467;26;20255;-75
2024/04/15 12:52:07;;;;;;;9.65;5.53;;;22.20;99.90;;;;;;5393589;26;20359;-75